Time;durP1;ratioP1;P1;durP2;ratioP2;P2;SDS_P1;SDS_P2;PMS_P1;PMS_P2;Temp;Humidity;BMP_temperature;BMP_pressure;BME280_temperature;BME280_humidity;BME280_pressure;Samples;Min_cycle;Max_cycle;Signal;HPM_P1;HPM_P2
2024/02/11 05:02:44;;;;;;;29.37;5.90;;;8.40;97.30;;;;;;5229856;23;20493;-92
2024/02/11 05:06:32;;;;;;;9.07;7.27;;;8.40;97.30;;;;;;5044911;28;20461;-88
2024/02/11 05:09:37;;;;;;;6.53;6.13;;;8.40;97.30;;;;;;4899175;29;20855;-90
2024/02/11 05:12:36;;;;;;;;;;;;;;;;;;;;;
2024/02/11 05:15:01;;;;;;;7.07;5.43;;;8.40;97.30;;;;;;4830445;29;20443;-88
2024/02/11 05:17:43;;;;;;;;;;;;;;;;;;;;;
2024/02/11 05:30:34;;;;;;;24.83;5.63;;;8.30;97.30;;;;;;4803869;23;20779;-63
2024/02/11 05:33:02;;;;;;;10.90;4.70;;;8.30;97.30;;;;;;4990123;28;20448;-63
2024/02/11 05:35:28;;;;;;;4.23;3.40;;;8.30;97.30;;;;;;4994836;28;20478;-63
2024/02/11 05:37:57;;;;;;;5.33;4.20;;;8.30;97.30;;;;;;4995774;28;20466;-63
2024/02/11 05:40:28;;;;;;;8.93;5.47;;;8.30;97.30;;;;;;4992822;28;20459;-62
2024/02/11 05:42:59;;;;;;;9.80;6.80;;;8.30;97.30;;;;;;4985958;28;20886;-62
2024/02/11 05:45:25;;;;;;;7.00;4.60;;;8.30;97.30;;;;;;5006170;28;20490;-63
2024/02/11 05:47:51;;;;;;;4.93;3.70;;;8.30;97.30;;;;;;5006363;28;20508;-62
2024/02/11 05:50:17;;;;;;;8.43;5.43;;;8.30;97.30;;;;;;5021825;28;20419;-62
2024/02/11 05:52:43;;;;;;;9.83;5.43;;;8.30;97.30;;;;;;4986296;28;20772;-63
2024/02/11 05:55:11;;;;;;;14.50;5.40;;;8.30;97.30;;;;;;5008290;28;20494;-63
2024/02/11 05:57:39;;;;;;;14.17;7.67;;;8.30;97.30;;;;;;5004652;28;20417;-62
2024/02/11 06:00:11;;;;;;;11.73;6.30;;;8.40;97.30;;;;;;4991206;28;20459;-63
2024/02/11 06:02:38;;;;;;;15.30;7.00;;;8.30;97.30;;;;;;4986859;28;20478;-63
2024/02/11 06:05:06;;;;;;;10.50;6.80;;;8.30;97.30;;;;;;5079702;23;20502;-85
2024/02/11 06:07:33;;;;;;;7.73;5.60;;;8.30;97.30;;;;;;5079926;28;20417;-85
2024/02/11 06:09:58;;;;;;;8.20;4.83;;;8.30;97.30;;;;;;5076389;28;20413;-86
2024/02/11 06:12:25;;;;;;;25.00;9.33;;;8.30;97.30;;;;;;5062740;28;20475;-86
2024/02/11 06:14:50;;;;;;;26.13;6.67;;;8.40;97.30;;;;;;5081501;28;20255;-86
2024/02/11 06:17:16;;;;;;;14.40;7.47;;;8.40;97.30;;;;;;5077555;28;20830;-86
2024/02/11 06:19:42;;;;;;;8.20;7.77;;;8.40;97.30;;;;;;5079835;28;20182;-88
2024/02/11 06:22:08;;;;;;;6.97;5.80;;;8.40;97.30;;;;;;5075221;28;20187;-83
2024/02/11 06:24:33;;;;;;;11.00;4.43;;;8.40;97.30;;;;;;5086046;28;20460;-83
2024/02/11 06:26:59;;;;;;;27.53;9.10;;;8.40;97.30;;;;;;5088713;28;20253;-87
2024/02/11 06:29:27;;;;;;;21.73;5.60;;;8.40;97.30;;;;;;5088875;28;20562;-84
2024/02/11 06:31:53;;;;;;;5.20;4.23;;;8.40;97.30;;;;;;5079231;28;20179;-84
2024/02/11 06:34:21;;;;;;;10.40;6.23;;;8.40;97.30;;;;;;5082417;28;20437;-85
2024/02/11 06:36:48;;;;;;;18.23;4.87;;;8.40;97.30;;;;;;5076155;28;20509;-84
2024/02/11 06:39:14;;;;;;;10.03;8.27;;;8.40;97.30;;;;;;5081772;28;20417;-87
2024/02/11 06:41:40;;;;;;;38.87;6.20;;;8.40;97.30;;;;;;5077070;28;20474;-88
2024/02/11 06:44:06;;;;;;;18.23;5.80;;;8.40;97.30;;;;;;5076804;28;20497;-87
2024/02/11 06:46:32;;;;;;;9.03;7.03;;;8.40;97.30;;;;;;5075441;28;20470;-88
2024/02/11 06:49:00;;;;;;;10.43;5.57;;;8.40;97.30;;;;;;5075857;28;20174;-88
2024/02/11 06:51:31;;;;;;;8.27;4.60;;;8.40;97.30;;;;;;5080297;28;20417;-87
2024/02/11 06:53:56;;;;;;;10.57;4.60;;;8.40;97.30;;;;;;5070969;28;20456;-87
2024/02/11 06:56:27;;;;;;;5.27;4.50;;;8.40;97.30;;;;;;5071048;28;20791;-87
2024/02/11 06:58:56;;;;;;;16.03;5.90;;;8.40;97.30;;;;;;5070448;28;20202;-88
2024/02/11 07:01:22;;;;;;;4.23;3.03;;;8.40;97.30;;;;;;5070897;28;20927;-86
2024/02/11 07:03:49;;;;;;;8.70;6.30;;;8.40;97.30;;;;;;5071678;28;20473;-88
2024/02/11 07:06:15;;;;;;;14.33;5.40;;;8.40;97.30;;;;;;5073561;28;20413;-87
2024/02/11 07:08:41;;;;;;;6.33;4.43;;;8.30;97.30;;;;;;5055429;28;20424;-88
2024/02/11 07:11:08;;;;;;;10.60;7.03;;;8.40;97.30;;;;;;5055499;28;20405;-88
2024/02/11 07:13:34;;;;;;;18.63;6.73;;;8.40;97.30;;;;;;5055683;28;20203;-87
2024/02/11 07:15:59;;;;;;;3.87;3.33;;;8.40;97.30;;;;;;5056658;28;20448;-88
2024/02/11 07:18:25;;;;;;;7.80;3.63;;;8.40;97.30;;;;;;5055804;28;20446;-89
2024/02/11 07:20:51;;;;;;;3.00;2.80;;;8.40;97.30;;;;;;5056141;28;20640;-87
2024/02/11 07:23:17;;;;;;;9.13;3.83;;;8.40;97.30;;;;;;5053675;28;20669;-87
2024/02/11 07:25:42;;;;;;;11.10;6.30;;;8.40;97.30;;;;;;5073108;28;20179;-87
2024/02/11 07:28:08;;;;;;;12.50;7.37;;;8.40;97.30;;;;;;5055194;28;20268;-88
2024/02/11 07:30:34;;;;;;;10.83;5.23;;;8.40;97.30;;;;;;5071432;28;20182;-87
2024/02/11 07:33:00;;;;;;;8.27;3.90;;;8.30;97.30;;;;;;5071313;28;20479;-87
2024/02/11 07:35:25;;;;;;;7.30;4.20;;;8.40;97.30;;;;;;5053319;28;20422;-87
2024/02/11 07:37:51;;;;;;;7.67;6.30;;;8.40;97.30;;;;;;5053350;28;20250;-87
2024/02/11 07:40:17;;;;;;;5.03;4.70;;;8.40;97.30;;;;;;5053366;28;20644;-87
2024/02/11 07:42:43;;;;;;;8.40;4.13;;;8.40;97.30;;;;;;5052913;28;20413;-87
2024/02/11 07:45:14;;;;;;;5.50;3.37;;;8.40;97.30;;;;;;5052938;28;20514;-87
2024/02/11 07:47:45;;;;;;;13.57;6.27;;;8.40;97.30;;;;;;5049116;28;20308;-87
2024/02/11 07:50:14;;;;;;;8.70;4.93;;;8.40;97.30;;;;;;5071175;28;20438;-87
2024/02/11 07:52:40;;;;;;;4.97;3.53;;;8.40;97.30;;;;;;5053163;28;20418;-87
2024/02/11 07:55:07;;;;;;;10.67;4.23;;;8.40;97.30;;;;;;5054249;28;20477;-86
2024/02/11 07:57:33;;;;;;;4.93;4.67;;;8.40;97.30;;;;;;5052968;28;20494;-86
2024/02/11 07:59:58;;;;;;;6.53;6.13;;;8.40;97.30;;;;;;5071180;28;20413;-88
2024/02/11 08:02:24;;;;;;;8.97;5.87;;;8.40;97.30;;;;;;5070844;28;20652;-87
2024/02/11 08:04:50;;;;;;;8.77;3.80;;;8.40;97.30;;;;;;5065266;28;20231;-88
2024/02/11 08:07:16;;;;;;;6.93;6.00;;;8.40;97.30;;;;;;5069183;28;20179;-88
2024/02/11 08:09:42;;;;;;;17.07;6.30;;;8.40;97.30;;;;;;5070361;28;20433;-87
2024/02/11 08:12:08;;;;;;;10.13;6.23;;;8.40;97.30;;;;;;5070005;28;20183;-89
2024/02/11 08:14:37;;;;;;;11.00;4.83;;;8.40;97.30;;;;;;5069197;28;20453;-88
2024/02/11 08:17:03;;;;;;;13.07;6.73;;;8.40;97.30;;;;;;5069945;28;20480;-87
2024/02/11 08:19:28;;;;;;;10.93;5.20;;;8.40;97.30;;;;;;5069499;28;20413;-88
2024/02/11 08:21:55;;;;;;;17.40;5.23;;;8.40;97.30;;;;;;5073321;28;20202;-88
2024/02/11 08:24:20;;;;;;;13.60;7.37;;;8.40;97.30;;;;;;5072790;28;20206;-88
2024/02/11 08:26:47;;;;;;;5.03;4.73;;;8.40;97.30;;;;;;5074817;28;20423;-86
2024/02/11 08:29:13;;;;;;;6.00;3.63;;;8.40;97.30;;;;;;5069476;28;20588;-87
2024/02/11 08:31:39;;;;;;;5.37;3.20;;;8.40;97.30;;;;;;5075640;28;20450;-88
2024/02/11 08:34:05;;;;;;;10.90;5.17;;;8.50;97.30;;;;;;5071970;28;20207;-87
2024/02/11 08:36:30;;;;;;;15.43;6.43;;;8.50;97.30;;;;;;5077288;28;20438;-87
2024/02/11 08:38:58;;;;;;;5.10;3.00;;;8.40;97.30;;;;;;5069758;28;20621;-88
2024/02/11 08:41:23;;;;;;;13.13;5.00;;;8.40;97.30;;;;;;5068134;28;20183;-88
2024/02/11 08:43:49;;;;;;;12.83;5.50;;;8.40;97.30;;;;;;5074652;28;20463;-87
2024/02/11 08:46:15;;;;;;;17.10;5.13;;;8.50;97.30;;;;;;5073179;28;20178;-87
2024/02/11 08:48:40;;;;;;;11.90;3.67;;;8.50;97.30;;;;;;5072891;28;20205;-87
2024/02/11 08:51:06;;;;;;;28.43;8.30;;;8.50;97.30;;;;;;5072936;28;20518;-87
2024/02/11 08:53:32;;;;;;;10.80;4.93;;;8.50;97.30;;;;;;5076576;28;20276;-87
2024/02/11 08:55:58;;;;;;;15.60;7.57;;;8.60;97.30;;;;;;5072789;28;20179;-87
2024/02/11 08:58:24;;;;;;;10.43;6.90;;;8.60;97.30;;;;;;5076702;28;20421;-87
2024/02/11 09:00:50;;;;;;;8.53;5.63;;;8.60;97.30;;;;;;5081905;28;20174;-86
2024/02/11 09:03:15;;;;;;;9.77;7.00;;;8.60;97.30;;;;;;5074038;28;20488;-84
2024/02/11 09:05:45;;;;;;;10.20;6.00;;;8.70;97.30;;;;;;5057611;28;20191;-87
2024/02/11 09:08:12;;;;;;;16.30;5.70;;;8.70;97.30;;;;;;5057113;28;20551;-87
2024/02/11 09:10:37;;;;;;;25.00;8.67;;;8.70;97.30;;;;;;5048180;28;20171;-87
2024/02/11 09:13:04;;;;;;;13.07;5.13;;;8.70;97.30;;;;;;5056699;28;20433;-87
2024/02/11 09:15:30;;;;;;;4.77;4.47;;;8.80;97.30;;;;;;5053747;28;20264;-87
2024/02/11 09:17:56;;;;;;;8.83;5.83;;;8.80;97.30;;;;;;5057545;28;20449;-86
2024/02/11 09:20:22;;;;;;;15.40;3.80;;;8.90;97.30;;;;;;5055743;28;20273;-88
2024/02/11 09:22:48;;;;;;;8.30;5.90;;;8.90;97.30;;;;;;5064424;28;20453;-84
2024/02/11 09:25:14;;;;;;;7.87;5.87;;;9.00;97.30;;;;;;5060963;28;20203;-84
2024/02/11 09:27:40;;;;;;;10.30;6.87;;;9.10;97.30;;;;;;5058968;28;20982;-85
2024/02/11 09:30:15;;;;;;;9.60;4.33;;;9.10;97.30;;;;;;5057493;28;20453;-87
2024/02/11 09:32:41;;;;;;;5.43;4.30;;;9.20;97.30;;;;;;5057051;28;20171;-84
2024/02/11 09:35:07;;;;;;;14.20;5.87;;;9.20;97.30;;;;;;5054001;28;20437;-88
2024/02/11 09:37:33;;;;;;;12.77;9.30;;;9.30;97.30;;;;;;5077908;28;20645;-87
2024/02/11 09:39:59;;;;;;;5.60;3.73;;;9.30;97.30;;;;;;5060431;28;20410;-87
2024/02/11 09:42:25;;;;;;;10.67;5.30;;;9.30;97.30;;;;;;5056385;28;20236;-87
2024/02/11 09:44:53;;;;;;;10.60;5.70;;;9.30;97.30;;;;;;5058714;28;20230;-87
2024/02/11 09:47:21;;;;;;;10.23;5.63;;;9.30;97.30;;;;;;5055410;28;20418;-88
2024/02/11 09:49:49;;;;;;;15.73;4.90;;;9.30;97.30;;;;;;5060621;28;20499;-86
2024/02/11 09:52:19;;;;;;;7.63;5.23;;;9.30;97.30;;;;;;5060637;28;20500;-88
2024/02/11 09:54:46;;;;;;;13.73;5.80;;;9.30;97.30;;;;;;5059973;28;20433;-86
2024/02/11 09:57:11;;;;;;;5.60;5.30;;;9.20;97.30;;;;;;5054863;28;20981;-87
2024/02/11 09:59:37;;;;;;;9.43;5.73;;;9.20;97.30;;;;;;5061839;28;20417;-87
2024/02/11 10:02:06;;;;;;;14.73;6.73;;;9.20;97.30;;;;;;5079119;28;20208;-87
2024/02/11 10:04:37;;;;;;;8.70;4.97;;;9.10;97.30;;;;;;5072863;28;20223;-87
2024/02/11 10:07:07;;;;;;;3.27;2.87;;;9.10;97.30;;;;;;5060588;28;20424;-87
2024/02/11 10:09:33;;;;;;;8.63;6.13;;;9.10;97.30;;;;;;5058426;28;20426;-87
2024/02/11 10:11:59;;;;;;;14.17;5.77;;;9.10;97.30;;;;;;5088471;28;20444;-87
2024/02/11 10:14:29;;;;;;;12.23;4.40;;;9.10;97.30;;;;;;5063101;28;20680;-87
2024/02/11 10:16:58;;;;;;;18.00;6.90;;;9.10;97.30;;;;;;5077621;28;20421;-87
2024/02/11 10:19:23;;;;;;;10.13;5.07;;;9.20;97.30;;;;;;5058775;28;20426;-88
2024/02/11 10:21:50;;;;;;;15.33;5.50;;;9.20;97.30;;;;;;5084427;28;20424;-87
2024/02/11 10:24:18;;;;;;;10.57;7.37;;;9.20;97.30;;;;;;5059321;28;20264;-87
2024/02/11 10:26:49;;;;;;;9.57;5.17;;;9.20;97.30;;;;;;5083611;28;20429;-87
2024/02/11 10:29:18;;;;;;;16.03;8.30;;;9.20;97.30;;;;;;5066238;28;20429;-87
2024/02/11 10:31:43;;;;;;;6.40;4.73;;;9.20;97.30;;;;;;5065849;28;20550;-87
2024/02/11 10:34:09;;;;;;;9.77;5.93;;;9.20;97.30;;;;;;5074337;28;20547;-87
2024/02/11 10:36:37;;;;;;;8.40;5.37;;;9.20;97.30;;;;;;5055209;28;20276;-86
2024/02/11 10:39:05;;;;;;;15.87;4.97;;;9.20;97.30;;;;;;5048142;28;21059;-88
2024/02/11 10:41:31;;;;;;;21.67;8.00;;;9.20;97.30;;;;;;5062966;28;20428;-87
2024/02/11 10:43:57;;;;;;;6.07;4.50;;;9.20;97.30;;;;;;5057662;28;20475;-88
2024/02/11 10:46:24;;;;;;;7.67;5.50;;;9.20;97.30;;;;;;5058517;28;20710;-87
2024/02/11 10:48:50;;;;;;;6.30;5.30;;;9.20;97.30;;;;;;5065748;28;20420;-87
2024/02/11 10:51:23;;;;;;;9.30;4.17;;;9.30;97.30;;;;;;5054127;28;20413;-87
2024/02/11 10:53:56;;;;;;;5.70;4.23;;;9.30;97.30;;;;;;5066454;28;20221;-89
2024/02/11 10:56:23;;;;;;;7.43;4.27;;;9.30;97.30;;;;;;5097736;28;20432;-90
2024/02/11 10:59:06;;;;;;;9.87;6.60;;;9.30;97.30;;;;;;5081296;28;20508;-88
2024/02/11 11:01:32;;;;;;;14.47;7.60;;;9.30;97.30;;;;;;5057275;28;20894;-86
2024/02/11 11:03:59;;;;;;;10.60;5.93;;;9.30;97.30;;;;;;5059342;28;20477;-87
2024/02/11 11:06:27;;;;;;;7.13;6.73;;;9.30;97.30;;;;;;5073007;28;20440;-87
2024/02/11 11:08:53;;;;;;;7.07;5.37;;;9.40;97.30;;;;;;5076284;28;20427;-87
2024/02/11 11:11:25;;;;;;;8.97;4.57;;;9.40;97.30;;;;;;5070560;28;20450;-87
2024/02/11 11:13:56;;;;;;;3.63;3.43;;;9.40;97.30;;;;;;5073949;28;20437;-88
2024/02/11 11:16:26;;;;;;;18.50;7.97;;;9.30;97.30;;;;;;5074721;28;20445;-86
2024/02/11 11:18:52;;;;;;;8.43;5.67;;;9.30;97.30;;;;;;5072144;28;20496;-87
2024/02/11 11:21:17;;;;;;;11.43;5.00;;;9.30;97.30;;;;;;5070344;28;20528;-87
2024/02/11 11:23:47;;;;;;;10.63;5.10;;;9.30;97.30;;;;;;5074145;28;20211;-87
2024/02/11 11:26:13;;;;;;;9.23;4.33;;;9.30;97.30;;;;;;5068002;28;20746;-86
2024/02/11 11:28:41;;;;;;;16.37;8.20;;;9.30;97.30;;;;;;5070555;28;20410;-87
2024/02/11 11:31:07;;;;;;;13.00;7.40;;;9.30;97.30;;;;;;5070234;28;21005;-86
2024/02/11 11:33:36;;;;;;;8.23;4.80;;;9.30;97.30;;;;;;5079365;28;20437;-85
2024/02/11 11:36:04;;;;;;;11.00;5.33;;;9.30;97.30;;;;;;5077250;28;20185;-86
2024/02/11 11:38:30;;;;;;;10.53;5.97;;;9.30;97.30;;;;;;5068743;28;20425;-85
2024/02/11 11:40:58;;;;;;;4.17;3.30;;;9.30;97.30;;;;;;5071160;28;20853;-85
2024/02/11 11:43:24;;;;;;;11.33;6.17;;;9.30;97.30;;;;;;5074966;28;20805;-85
2024/02/11 11:45:52;;;;;;;6.83;4.80;;;9.30;97.30;;;;;;5080966;28;20420;-87
2024/02/11 11:48:17;;;;;;;8.67;6.80;;;9.30;97.30;;;;;;5076348;28;20416;-87
2024/02/11 11:50:43;;;;;;;17.13;5.90;;;9.30;97.30;;;;;;5075228;28;20425;-86
2024/02/11 11:53:08;;;;;;;25.90;7.70;;;9.30;97.30;;;;;;5072020;28;20211;-87
2024/02/11 11:55:36;;;;;;;14.20;7.87;;;9.30;97.30;;;;;;5068350;28;20183;-86
2024/02/11 11:58:02;;;;;;;14.30;6.83;;;9.30;97.30;;;;;;5063689;28;20266;-86
2024/02/11 12:00:28;;;;;;;11.23;6.47;;;9.30;97.30;;;;;;5069740;28;21020;-87
2024/02/11 12:02:55;;;;;;;16.13;6.97;;;9.30;97.30;;;;;;5063248;28;20410;-85
2024/02/11 12:05:21;;;;;;;8.90;6.63;;;9.30;97.30;;;;;;5051937;28;20237;-87
2024/02/11 12:07:48;;;;;;;15.70;7.00;;;9.30;97.30;;;;;;5053376;28;20442;-88
2024/02/11 12:10:13;;;;;;;9.07;4.30;;;9.30;97.30;;;;;;5053298;28;20429;-87
2024/02/11 12:12:39;;;;;;;12.47;5.33;;;9.30;97.30;;;;;;5052587;28;20495;-88
2024/02/11 12:15:05;;;;;;;8.57;6.20;;;9.30;97.30;;;;;;5052174;28;20211;-88
2024/02/11 12:17:30;;;;;;;14.73;6.13;;;9.30;97.30;;;;;;5069940;28;20570;-86
2024/02/11 12:19:57;;;;;;;14.33;7.17;;;9.20;97.30;;;;;;5069864;28;20616;-87
2024/02/11 12:22:22;;;;;;;8.17;4.67;;;9.20;97.30;;;;;;5052334;28;20657;-87
2024/02/11 12:24:48;;;;;;;9.10;5.30;;;9.20;97.30;;;;;;5070295;28;20453;-88
2024/02/11 12:27:17;;;;;;;6.07;5.77;;;9.30;97.30;;;;;;5052348;28;20181;-87
2024/02/11 12:29:53;;;;;;;16.23;8.97;;;9.30;97.30;;;;;;5052330;28;20546;-87
2024/02/11 12:32:21;;;;;;;9.03;6.10;;;9.30;97.30;;;;;;5052100;28;20420;-88
2024/02/11 12:34:47;;;;;;;11.87;7.37;;;9.30;97.30;;;;;;5069631;28;21014;-87
2024/02/11 12:37:14;;;;;;;15.77;8.00;;;9.30;97.30;;;;;;5052206;28;20449;-87
2024/02/11 12:39:40;;;;;;;9.57;6.03;;;9.20;97.30;;;;;;5069922;28;20466;-87
2024/02/11 12:42:06;;;;;;;9.97;8.53;;;9.20;97.30;;;;;;5094864;23;20510;-61
2024/02/11 12:44:32;;;;;;;13.27;8.20;;;9.20;97.30;;;;;;5043322;28;20474;-61
2024/02/11 12:46:58;;;;;;;8.47;4.73;;;9.20;97.30;;;;;;5040260;28;20708;-61
2024/02/11 12:49:23;;;;;;;11.40;5.53;;;9.10;97.30;;;;;;5041094;28;20194;-61
2024/02/11 12:51:49;;;;;;;15.13;6.67;;;9.10;97.30;;;;;;5036153;28;20456;-61
2024/02/11 12:54:15;;;;;;;5.87;5.57;;;9.10;97.30;;;;;;5047270;28;20183;-62
2024/02/11 12:56:43;;;;;;;13.63;6.07;;;9.10;97.30;;;;;;5045278;28;20529;-62
2024/02/11 12:59:09;;;;;;;6.70;5.27;;;9.10;97.30;;;;;;5035935;28;20191;-61
2024/02/11 13:01:35;;;;;;;12.33;7.13;;;9.10;97.30;;;;;;5036555;28;20970;-61
2024/02/11 13:04:02;;;;;;;6.80;5.00;;;9.10;97.30;;;;;;5040800;28;20455;-62
2024/02/11 13:06:28;;;;;;;11.10;7.70;;;9.10;97.30;;;;;;5034370;28;20171;-61
2024/02/11 13:08:53;;;;;;;8.73;4.23;;;9.10;97.30;;;;;;5033431;28;20423;-61
2024/02/11 13:11:19;;;;;;;10.00;5.13;;;9.10;97.30;;;;;;5038285;28;20438;-61
2024/02/11 13:13:44;;;;;;;7.27;5.10;;;9.10;97.30;;;;;;5033286;28;20196;-61
2024/02/11 13:16:10;;;;;;;32.03;8.00;;;9.10;97.30;;;;;;5037171;28;20553;-61
2024/02/11 13:18:37;;;;;;;4.20;2.77;;;9.10;97.30;;;;;;5036047;28;20659;-61
2024/02/11 13:21:03;;;;;;;8.23;4.43;;;9.10;97.30;;;;;;5039685;28;20211;-61
2024/02/11 13:23:29;;;;;;;14.73;5.23;;;9.10;97.30;;;;;;5043386;28;20673;-61
2024/02/11 13:25:55;;;;;;;15.63;4.43;;;9.10;97.30;;;;;;5032783;28;20954;-61
2024/02/11 13:28:22;;;;;;;3.13;2.93;;;9.20;97.30;;;;;;5035019;28;20512;-61
2024/02/11 13:30:51;;;;;;;4.70;3.37;;;9.20;97.30;;;;;;5039560;28;20881;-61
2024/02/11 13:33:17;;;;;;;12.57;4.60;;;9.20;97.30;;;;;;5045205;28;20423;-61
2024/02/11 13:35:43;;;;;;;5.40;4.20;;;9.20;97.30;;;;;;5044501;28;20431;-62
2024/02/11 13:38:09;;;;;;;5.33;4.50;;;9.20;97.30;;;;;;5032170;28;20791;-62
2024/02/11 13:40:35;;;;;;;7.63;7.20;;;9.20;97.30;;;;;;5046963;28;20238;-62
2024/02/11 13:43:02;;;;;;;14.00;6.90;;;9.20;97.30;;;;;;5013279;28;20431;-61
2024/02/11 13:45:30;;;;;;;11.67;5.87;;;9.20;97.30;;;;;;5048007;28;20485;-62
2024/02/11 13:48:02;;;;;;;11.53;4.67;;;9.20;97.30;;;;;;5028074;28;20426;-63
2024/02/11 13:50:31;;;;;;;6.20;4.10;;;9.20;97.30;;;;;;5029100;28;20454;-61
2024/02/11 13:52:57;;;;;;;12.30;7.00;;;9.10;97.30;;;;;;5047285;28;20498;-61
2024/02/11 13:55:23;;;;;;;5.20;4.10;;;9.20;97.30;;;;;;5047129;28;20921;-62
2024/02/11 13:57:49;;;;;;;17.93;4.33;;;9.20;97.30;;;;;;5030438;28;20763;-62
2024/02/11 14:00:16;;;;;;;12.50;4.10;;;9.10;97.30;;;;;;5047642;28;20410;-61
2024/02/11 14:02:42;;;;;;;11.53;5.20;;;9.20;97.30;;;;;;5047799;28;20172;-61
2024/02/11 14:05:08;;;;;;;6.20;4.07;;;9.20;97.30;;;;;;5047854;28;20461;-60
2024/02/11 14:07:34;;;;;;;4.40;4.13;;;9.20;97.30;;;;;;5050294;28;20422;-61
2024/02/11 14:10:03;;;;;;;19.80;6.73;;;9.20;97.30;;;;;;5024661;28;20455;-60
2024/02/11 14:12:33;;;;;;;12.97;5.50;;;9.20;97.30;;;;;;5024814;28;20203;-61
2024/02/11 14:14:59;;;;;;;7.50;4.07;;;9.20;97.30;;;;;;5050574;28;20423;-61
2024/02/11 14:17:25;;;;;;;7.93;3.73;;;9.20;97.30;;;;;;5033027;28;20501;-61
2024/02/11 14:19:51;;;;;;;10.17;4.23;;;9.20;97.30;;;;;;5032642;28;20629;-61
2024/02/11 14:22:16;;;;;;;8.33;5.63;;;9.20;97.30;;;;;;5050547;28;20470;-61
2024/02/11 14:24:42;;;;;;;6.00;3.77;;;9.20;97.30;;;;;;5050419;28;20278;-61
2024/02/11 14:27:08;;;;;;;8.37;4.13;;;9.20;97.30;;;;;;5050404;28;20178;-61
2024/02/11 14:29:35;;;;;;;16.23;6.50;;;9.20;97.30;;;;;;5032683;28;20612;-61
2024/02/11 14:32:03;;;;;;;12.47;6.50;;;9.20;97.30;;;;;;5014054;28;20250;-61
2024/02/11 14:34:29;;;;;;;8.33;4.83;;;9.30;97.30;;;;;;5026820;28;20509;-61
2024/02/11 14:36:55;;;;;;;9.33;5.83;;;9.20;97.30;;;;;;5040047;28;20429;-61
2024/02/11 14:39:20;;;;;;;6.80;3.90;;;9.20;97.30;;;;;;5025457;28;20430;-61
2024/02/11 14:41:47;;;;;;;6.30;3.13;;;9.20;97.30;;;;;;5041664;28;20228;-61
2024/02/11 14:44:13;;;;;;;11.40;6.30;;;9.20;97.30;;;;;;5050581;28;20549;-61
2024/02/11 14:46:39;;;;;;;8.80;5.50;;;9.20;97.30;;;;;;5016733;28;21018;-61
2024/02/11 14:49:05;;;;;;;7.10;4.80;;;9.20;97.30;;;;;;5030640;28;20207;-61
2024/02/11 14:51:32;;;;;;;11.70;7.77;;;9.20;97.30;;;;;;5031573;28;20442;-61
2024/02/11 14:54:00;;;;;;;10.50;5.57;;;9.20;97.30;;;;;;5031992;28;20426;-61
2024/02/11 14:56:26;;;;;;;5.67;4.70;;;9.20;97.30;;;;;;5026405;28;20523;-61
2024/02/11 14:58:52;;;;;;;16.33;8.03;;;9.20;97.30;;;;;;5028759;28;20441;-61
2024/02/11 15:01:19;;;;;;;8.93;5.10;;;9.20;97.30;;;;;;5026466;28;20852;-61
2024/02/11 15:03:46;;;;;;;11.33;8.07;;;9.20;97.30;;;;;;5037873;28;20470;-62
2024/02/11 15:06:12;;;;;;;10.90;5.00;;;9.20;97.30;;;;;;5015796;28;20422;-62
2024/02/11 15:08:41;;;;;;;4.70;3.13;;;9.10;97.30;;;;;;5049678;28;20418;-62
2024/02/11 15:11:10;;;;;;;12.47;6.03;;;9.20;97.30;;;;;;5038416;28;20446;-62
2024/02/11 15:13:36;;;;;;;12.27;4.20;;;9.20;97.30;;;;;;5030084;28;20416;-62
2024/02/11 15:16:02;;;;;;;8.63;5.07;;;9.10;97.30;;;;;;5039407;28;20414;-61
2024/02/11 15:18:28;;;;;;;6.60;4.43;;;9.10;97.30;;;;;;5016923;28;20454;-62
2024/02/11 15:20:54;;;;;;;11.60;5.40;;;9.10;97.30;;;;;;5020069;28;20443;-62
2024/02/11 15:23:20;;;;;;;4.37;3.90;;;9.10;97.30;;;;;;5031238;28;20671;-62
2024/02/11 15:25:47;;;;;;;8.60;6.10;;;9.10;97.30;;;;;;5023297;28;20648;-62
2024/02/11 15:28:13;;;;;;;11.70;5.43;;;9.10;97.30;;;;;;5021588;28;20180;-62
2024/02/11 15:30:38;;;;;;;13.17;6.17;;;9.00;97.30;;;;;;5029233;28;20500;-62
2024/02/11 15:33:12;;;;;;;6.00;4.20;;;9.10;97.30;;;;;;5018381;28;20245;-61
2024/02/11 15:35:43;;;;;;;7.57;5.23;;;9.00;97.30;;;;;;5027593;28;20204;-62
2024/02/11 15:38:09;;;;;;;6.83;4.67;;;9.00;97.30;;;;;;5009160;28;20443;-62
2024/02/11 15:40:45;;;;;;;5.60;4.93;;;9.00;97.30;;;;;;5009195;28;20439;-62
2024/02/11 15:43:12;;;;;;;8.10;5.17;;;9.00;97.30;;;;;;5006204;28;20853;-62
2024/02/11 15:45:38;;;;;;;2.80;2.60;;;9.00;97.30;;;;;;5016504;28;20990;-62
2024/02/11 15:48:05;;;;;;;4.80;4.50;;;9.00;97.30;;;;;;5010943;28;20429;-62
2024/02/11 15:50:31;;;;;;;8.47;6.50;;;9.00;97.30;;;;;;5038035;28;20967;-62
2024/02/11 15:52:56;;;;;;;4.93;4.47;;;9.00;97.30;;;;;;5019538;28;20780;-62
2024/02/11 15:55:23;;;;;;;7.87;4.07;;;9.00;97.30;;;;;;5013402;28;20484;-61
2024/02/11 15:57:48;;;;;;;4.40;3.27;;;9.00;97.30;;;;;;5030532;28;20186;-62
2024/02/11 16:00:19;;;;;;;6.13;4.30;;;9.00;97.30;;;;;;5046763;28;20510;-62
2024/02/11 16:02:48;;;;;;;8.97;4.30;;;9.00;97.30;;;;;;5038564;28;20258;-62
2024/02/11 16:05:14;;;;;;;17.90;5.77;;;9.00;97.30;;;;;;5037151;28;20558;-62
2024/02/11 16:07:42;;;;;;;17.70;7.57;;;9.00;97.30;;;;;;5011856;28;20506;-62
2024/02/11 16:10:11;;;;;;;19.43;5.93;;;9.00;97.30;;;;;;5047735;28;20259;-62
2024/02/11 16:12:37;;;;;;;9.90;6.10;;;8.90;97.30;;;;;;5034734;28;20411;-62
2024/02/11 16:15:05;;;;;;;4.80;3.43;;;8.90;97.30;;;;;;5028852;28;20736;-62
2024/02/11 16:17:36;;;;;;;19.97;5.60;;;8.90;97.30;;;;;;5037212;28;20710;-62
2024/02/11 16:20:04;;;;;;;8.03;6.87;;;8.90;97.30;;;;;;5012345;28;20970;-62
2024/02/11 16:22:29;;;;;;;8.10;5.33;;;8.90;97.30;;;;;;5040778;28;20418;-61
2024/02/11 16:24:55;;;;;;;10.43;3.97;;;8.90;97.30;;;;;;5039930;28;20516;-62
2024/02/11 16:27:21;;;;;;;6.03;4.70;;;8.90;97.30;;;;;;5032838;28;20187;-62
2024/02/11 16:29:47;;;;;;;9.90;5.73;;;8.90;97.30;;;;;;5030311;28;20711;-61
2024/02/11 16:32:12;;;;;;;7.00;6.60;;;8.90;97.30;;;;;;5045636;28;20443;-62
2024/02/11 16:34:38;;;;;;;18.80;7.63;;;8.90;97.30;;;;;;5025072;28;20180;-62
2024/02/11 16:37:03;;;;;;;11.30;6.40;;;8.90;97.30;;;;;;5020632;28;20531;-62
2024/02/11 16:39:30;;;;;;;7.23;4.37;;;8.90;97.30;;;;;;5041824;28;20187;-62
2024/02/11 16:41:56;;;;;;;8.60;4.17;;;8.90;97.30;;;;;;5039632;28;20683;-62
2024/02/11 16:44:21;;;;;;;12.57;8.17;;;8.90;97.30;;;;;;5040238;28;20457;-62
2024/02/11 16:46:47;;;;;;;7.67;4.23;;;8.90;97.30;;;;;;5040293;28;20172;-61
2024/02/11 16:49:13;;;;;;;5.10;4.50;;;8.90;97.30;;;;;;5045204;28;20550;-61
2024/02/11 16:51:39;;;;;;;7.20;4.53;;;8.90;97.30;;;;;;5035446;28;20195;-61
2024/02/11 16:54:04;;;;;;;16.23;6.27;;;8.90;97.30;;;;;;5044727;28;20414;-62
2024/02/11 16:56:30;;;;;;;9.10;6.80;;;8.90;97.30;;;;;;5041584;28;20184;-62
2024/02/11 16:58:56;;;;;;;8.77;5.40;;;8.90;97.30;;;;;;5047813;28;20180;-62
2024/02/11 17:01:21;;;;;;;9.87;4.80;;;8.90;97.30;;;;;;5018744;28;20249;-62
2024/02/11 17:03:47;;;;;;;6.10;4.00;;;8.90;97.30;;;;;;5044019;28;20633;-62
2024/02/11 17:06:15;;;;;;;5.43;5.13;;;8.90;97.30;;;;;;5039764;28;20215;-62
2024/02/11 17:08:41;;;;;;;13.00;6.30;;;8.90;97.30;;;;;;5048478;28;20601;-62
2024/02/11 17:11:11;;;;;;;20.03;6.57;;;8.90;97.30;;;;;;5036787;28;20932;-62
2024/02/11 17:13:38;;;;;;;4.63;3.80;;;8.90;97.30;;;;;;5039857;28;20171;-62
2024/02/11 17:16:06;;;;;;;5.07;4.80;;;8.90;97.30;;;;;;5042225;28;20510;-62
2024/02/11 17:18:32;;;;;;;13.33;3.47;;;8.90;97.30;;;;;;5030467;28;20658;-62
2024/02/11 17:20:59;;;;;;;11.53;4.20;;;8.90;97.30;;;;;;5039337;28;20495;-61
2024/02/11 17:23:24;;;;;;;5.50;4.80;;;8.90;97.30;;;;;;5030657;28;20670;-62
2024/02/11 17:25:54;;;;;;;11.03;7.20;;;8.90;97.30;;;;;;5048358;28;20466;-62
2024/02/11 17:28:21;;;;;;;14.37;4.93;;;8.90;97.30;;;;;;5038715;28;20501;-62
2024/02/11 17:30:50;;;;;;;9.53;5.13;;;8.90;97.30;;;;;;5063299;28;20433;-62
2024/02/11 17:33:16;;;;;;;9.70;3.13;;;8.90;97.30;;;;;;5059772;28;20928;-62
2024/02/11 17:35:41;;;;;;;9.13;5.20;;;8.90;97.30;;;;;;5037879;28;20423;-62
2024/02/11 17:38:08;;;;;;;5.27;4.00;;;8.90;97.30;;;;;;5028182;28;20659;-61
2024/02/11 17:40:34;;;;;;;3.00;2.80;;;8.90;97.30;;;;;;5036455;28;20199;-61
2024/02/11 17:43:00;;;;;;;6.40;4.43;;;8.90;97.30;;;;;;5037123;28;20548;-62
2024/02/11 17:45:27;;;;;;;4.23;3.67;;;8.90;97.30;;;;;;5063716;28;20674;-61
2024/02/11 17:47:54;;;;;;;1.73;1.40;;;8.80;97.30;;;;;;5071939;28;20415;-62
2024/02/11 17:50:20;;;;;;;3.97;3.77;;;8.70;97.30;;;;;;5060224;28;20411;-62
2024/02/11 17:52:45;;;;;;;1.33;1.23;;;8.60;97.30;;;;;;5025705;28;20809;-61
2024/02/11 17:55:12;;;;;;;1.57;1.47;;;8.50;97.30;;;;;;5042815;28;20245;-62
2024/02/11 17:57:40;;;;;;;1.00;1.00;;;8.50;97.30;;;;;;5047454;28;20214;-62
2024/02/11 18:00:09;;;;;;;3.27;1.50;;;8.50;97.30;;;;;;5062232;28;20417;-61
2024/02/11 18:02:38;;;;;;;2.10;1.23;;;8.40;97.30;;;;;;5054850;28;20473;-62
2024/02/11 18:05:11;;;;;;;1.23;1.20;;;8.40;97.30;;;;;;5031013;28;20466;-61
2024/02/11 18:07:43;;;;;;;1.20;1.10;;;8.40;97.30;;;;;;5045193;28;20433;-62